sensor_id;sensor_type;location;lat;lon;timestamp;pressure;altitude;pressure_sealevel;temperature;humidity
55068;BME280;40965;52.368;9.712;2023-05-06T00:01:20;100908.81;;;12.36;100.00
55068;BME280;40965;52.368;9.712;2023-05-06T00:03:47;100902.69;;;12.34;100.00
55068;BME280;40965;52.368;9.712;2023-05-06T00:06:13;100905.38;;;12.31;100.00
55068;BME280;40965;52.368;9.712;2023-05-06T00:08:39;100904.50;;;12.31;100.00
55068;BME280;40965;52.368;9.712;2023-05-06T00:11:06;100897.53;;;12.27;100.00
55068;BME280;40965;52.368;9.712;2023-05-06T00:13:33;100905.44;;;12.25;100.00
55068;BME280;40965;52.368;9.712;2023-05-06T00:15:59;100896.75;;;12.20;100.00
55068;BME280;40965;52.368;9.712;2023-05-06T00:18:26;100897.63;;;12.20;100.00
55068;BME280;40965;52.368;9.712;2023-05-06T00:20:52;100898.53;;;12.18;100.00
55068;BME280;40965;52.368;9.712;2023-05-06T00:23:19;100891.56;;;12.15;100.00
55068;BME280;40965;52.368;9.712;2023-05-06T00:25:45;100897.69;;;12.14;100.00
55068;BME280;40965;52.368;9.712;2023-05-06T00:28:12;100894.19;;;12.15;100.00
55068;BME280;40965;52.368;9.712;2023-05-06T00:30:38;100890.69;;;12.15;100.00
55068;BME280;40965;52.368;9.712;2023-05-06T00:33:05;100902.09;;;12.14;100.00
55068;BME280;40965;52.368;9.712;2023-05-06T00:35:32;100898.66;;;12.08;100.00
55068;BME280;40965;52.368;9.712;2023-05-06T00:38:09;100903.00;;;12.08;100.00
55068;BME280;40965;52.368;9.712;2023-05-06T00:40:37;100905.63;;;12.08;100.00
55068;BME280;40965;52.368;9.712;2023-05-06T00:43:03;100910.00;;;12.09;100.00
55068;BME280;40965;52.368;9.712;2023-05-06T00:45:30;100908.25;;;12.08;100.00
55068;BME280;40965;52.368;9.712;2023-05-06T00:47:58;100909.13;;;12.07;100.00
55068;BME280;40965;52.368;9.712;2023-05-06T00:50:26;100912.66;;;12.04;100.00
55068;BME280;40965;52.368;9.712;2023-05-06T00:52:54;100912.66;;;12.04;100.00
55068;BME280;40965;52.368;9.712;2023-05-06T00:55:24;100912.66;;;12.04;100.00
55068;BME280;40965;52.368;9.712;2023-05-06T00:57:51;100910.94;;;12.03;100.00
55068;BME280;40965;52.368;9.712;2023-05-06T01:00:19;100917.94;;;12.03;100.00
55068;BME280;40965;52.368;9.712;2023-05-06T01:02:46;100912.69;;;12.01;100.00
55068;BME280;40965;52.368;9.712;2023-05-06T01:05:16;100914.47;;;12.01;100.00
55068;BME280;40965;52.368;9.712;2023-05-06T01:08:12;100900.53;;;11.96;100.00
55068;BME280;40965;52.368;9.712;2023-05-06T01:13:39;100904.88;;;11.97;100.00
55068;BME280;40965;52.368;9.712;2023-05-06T01:16:12;100911.88;;;11.96;100.00
55068;BME280;40965;52.368;9.712;2023-05-06T01:18:41;100905.75;;;11.92;100.00
55068;BME280;40965;52.368;9.712;2023-05-06T01:21:10;100906.69;;;11.88;100.00
55068;BME280;40965;52.368;9.712;2023-05-06T01:23:53;100899.69;;;11.89;100.00
55068;BME280;40965;52.368;9.712;2023-05-06T01:26:22;100912.81;;;11.87;100.00
55068;BME280;40965;52.368;9.712;2023-05-06T01:28:49;100907.63;;;11.83;100.00
55068;BME280;40965;52.368;9.712;2023-05-06T01:34:02;100912.94;;;11.75;100.00
55068;BME280;40965;52.368;9.712;2023-05-06T01:36:51;100913.09;;;11.58;100.00
55068;BME280;40965;52.368;9.712;2023-05-06T01:39:25;100907.13;;;11.39;100.00
55068;BME280;40965;52.368;9.712;2023-05-06T01:41:56;100915.16;;;11.19;100.00
55068;BME280;40965;52.368;9.712;2023-05-06T01:44:26;100914.41;;;11.04;100.00
55068;BME280;40965;52.368;9.712;2023-05-06T01:46:53;100915.34;;;10.89;100.00
55068;BME280;40965;52.368;9.712;2023-05-06T01:49:22;100916.28;;;10.79;100.00
55068;BME280;40965;52.368;9.712;2023-05-06T01:51:50;100917.19;;;10.72;100.00
55068;BME280;40965;52.368;9.712;2023-05-06T01:54:17;100910.28;;;10.62;100.00
55068;BME280;40965;52.368;9.712;2023-05-06T01:56:44;100907.69;;;10.52;100.00
55068;BME280;40965;52.368;9.712;2023-05-06T01:59:10;100912.94;;;10.48;100.00
55068;BME280;40965;52.368;9.712;2023-05-06T02:01:37;100912.06;;;10.44;100.00
55068;BME280;40965;52.368;9.712;2023-05-06T02:04:03;100912.97;;;10.40;100.00
55068;BME280;40965;52.368;9.712;2023-05-06T02:06:30;100915.63;;;10.37;100.00
55068;BME280;40965;52.368;9.712;2023-05-06T02:08:57;100909.47;;;10.33;100.00
55068;BME280;40965;52.368;9.712;2023-05-06T02:11:23;100902.53;;;10.29;100.00
55068;BME280;40965;52.368;9.712;2023-05-06T02:13:50;100906.03;;;10.25;100.00
55068;BME280;40965;52.368;9.712;2023-05-06T02:16:17;100911.28;;;10.23;100.00
55068;BME280;40965;52.368;9.712;2023-05-06T02:18:44;100906.03;;;10.20;100.00
55068;BME280;40965;52.368;9.712;2023-05-06T02:21:10;100900.81;;;10.17;100.00
55068;BME280;40965;52.368;9.712;2023-05-06T02:23:37;100902.56;;;10.15;100.00
55068;BME280;40965;52.368;9.712;2023-05-06T02:26:04;100902.59;;;10.12;100.00
55068;BME280;40965;52.368;9.712;2023-05-06T02:28:30;100905.22;;;10.10;100.00
55068;BME280;40965;52.368;9.712;2023-05-06T02:30:57;100900.88;;;10.06;100.00
55068;BME280;40965;52.368;9.712;2023-05-06T02:33:24;100905.22;;;10.03;100.00
55068;BME280;40965;52.368;9.712;2023-05-06T02:35:50;100909.59;;;9.98;100.00
55068;BME280;40965;52.368;9.712;2023-05-06T02:38:17;100913.06;;;9.98;100.00
55068;BME280;40965;52.368;9.712;2023-05-06T02:40:44;100910.47;;;9.97;100.00
55068;BME280;40965;52.368;9.712;2023-05-06T02:43:10;100909.59;;;9.94;100.00
55068;BME280;40965;52.368;9.712;2023-05-06T02:45:37;100907.88;;;9.93;100.00
55068;BME280;40965;52.368;9.712;2023-05-06T02:48:04;100910.47;;;9.95;100.00
55068;BME280;40965;52.368;9.712;2023-05-06T02:50:31;100910.47;;;9.98;100.00
55068;BME280;40965;52.368;9.712;2023-05-06T02:52:57;100912.22;;;9.98;100.00
55068;BME280;40965;52.368;9.712;2023-05-06T02:55:25;100911.31;;;9.97;100.00
55068;BME280;40965;52.368;9.712;2023-05-06T02:57:52;100905.25;;;9.95;100.00
55068;BME280;40965;52.368;9.712;2023-05-06T03:00:18;100899.13;;;9.93;100.00
55068;BME280;40965;52.368;9.712;2023-05-06T03:02:45;100909.59;;;9.91;100.00
55068;BME280;40965;52.368;9.712;2023-05-06T03:05:11;100906.13;;;9.88;100.00
55068;BME280;40965;52.368;9.712;2023-05-06T03:07:38;100908.75;;;9.86;100.00
55068;BME280;40965;52.368;9.712;2023-05-06T03:10:05;100905.28;;;9.84;100.00
55068;BME280;40965;52.368;9.712;2023-05-06T03:12:32;100904.41;;;9.81;100.00
55068;BME280;40965;52.368;9.712;2023-05-06T03:14:58;100903.53;;;9.79;100.00
55068;BME280;40965;52.368;9.712;2023-05-06T03:17:24;100901.78;;;9.74;100.00
55068;BME280;40965;52.368;9.712;2023-05-06T03:19:51;100910.50;;;9.75;100.00
55068;BME280;40965;52.368;9.712;2023-05-06T03:22:17;100907.00;;;9.70;100.00
55068;BME280;40965;52.368;9.712;2023-05-06T03:24:44;100909.66;;;9.64;100.00
55068;BME280;40965;52.368;9.712;2023-05-06T03:27:10;100916.59;;;9.63;100.00
55068;BME280;40965;52.368;9.712;2023-05-06T03:29:37;100914.00;;;9.62;100.00
55068;BME280;40965;52.368;9.712;2023-05-06T03:32:04;100903.56;;;9.58;100.00
55068;BME280;40965;52.368;9.712;2023-05-06T03:34:31;100908.78;;;9.57;100.00
55068;BME280;40965;52.368;9.712;2023-05-06T03:36:57;100906.16;;;9.55;100.00
55068;BME280;40965;52.368;9.712;2023-05-06T03:39:24;100913.16;;;9.61;100.00
55068;BME280;40965;52.368;9.712;2023-05-06T03:41:50;100912.25;;;9.74;100.00
55068;BME280;40965;52.368;9.712;2023-05-06T03:44:17;100920.94;;;9.87;100.00
55068;BME280;40965;52.368;9.712;2023-05-06T03:46:44;100920.03;;;10.01;100.00
55068;BME280;40965;52.368;9.712;2023-05-06T03:49:10;100920.91;;;10.12;100.00
55068;BME280;40965;52.368;9.712;2023-05-06T03:51:36;100921.72;;;10.22;100.00
55068;BME280;40965;52.368;9.712;2023-05-06T03:54:03;100922.56;;;10.32;100.00
55068;BME280;40965;52.368;9.712;2023-05-06T03:56:30;100925.19;;;10.42;100.00
55068;BME280;40965;52.368;9.712;2023-05-06T03:58:56;100927.75;;;10.50;100.00
55068;BME280;40965;52.368;9.712;2023-05-06T04:01:23;100925.13;;;10.55;100.00
55068;BME280;40965;52.368;9.712;2023-05-06T04:03:49;100930.31;;;10.61;100.00
55068;BME280;40965;52.368;9.712;2023-05-06T04:06:16;100931.19;;;10.65;100.00
55068;BME280;40965;52.368;9.712;2023-05-06T04:08:42;100925.06;;;10.69;100.00
55068;BME280;40965;52.368;9.712;2023-05-06T04:11:12;100926.78;;;10.70;100.00
55068;BME280;40965;52.368;9.712;2023-05-06T04:13:38;100933.78;;;10.72;100.00
55068;BME280;40965;52.368;9.712;2023-05-06T04:16:05;100932.03;;;10.73;100.00
55068;BME280;40965;52.368;9.712;2023-05-06T04:18:32;100939.91;;;10.73;100.00
55068;BME280;40965;52.368;9.712;2023-05-06T04:20:58;100945.13;;;10.73;100.00
55068;BME280;40965;52.368;9.712;2023-05-06T04:23:25;100937.22;;;10.78;100.00
55068;BME280;40965;52.368;9.712;2023-05-06T04:25:51;100948.56;;;10.81;100.00
55068;BME280;40965;52.368;9.712;2023-05-06T04:28:18;100950.31;;;10.79;100.00
55068;BME280;40965;52.368;9.712;2023-05-06T04:30:45;100951.19;;;10.83;100.00
55068;BME280;40965;52.368;9.712;2023-05-06T04:33:12;100949.41;;;10.83;100.00
55068;BME280;40965;52.368;9.712;2023-05-06T04:35:39;100952.03;;;10.83;100.00
55068;BME280;40965;52.368;9.712;2023-05-06T04:38:06;100945.09;;;10.82;100.00
55068;BME280;40965;52.368;9.712;2023-05-06T04:40:34;100944.19;;;10.85;100.00
55068;BME280;40965;52.368;9.712;2023-05-06T04:43:03;100952.03;;;10.83;100.00
55068;BME280;40965;52.368;9.712;2023-05-06T04:45:30;100951.19;;;10.80;100.00
55068;BME280;40965;52.368;9.712;2023-05-06T04:47:58;100952.94;;;10.79;100.00
55068;BME280;40965;52.368;9.712;2023-05-06T04:50:24;100951.19;;;10.80;100.00
55068;BME280;40965;52.368;9.712;2023-05-06T04:52:51;100952.91;;;10.81;100.00
55068;BME280;40965;52.368;9.712;2023-05-06T04:55:18;100954.69;;;10.80;100.00
55068;BME280;40965;52.368;9.712;2023-05-06T04:57:44;100957.28;;;10.82;100.00
55068;BME280;40965;52.368;9.712;2023-05-06T05:00:11;100958.19;;;10.82;100.00
55068;BME280;40965;52.368;9.712;2023-05-06T05:02:38;100967.75;;;10.83;100.00
55068;BME280;40965;52.368;9.712;2023-05-06T05:05:05;100952.88;;;10.88;100.00
55068;BME280;40965;52.368;9.712;2023-05-06T05:07:32;100959.00;;;10.90;100.00
55068;BME280;40965;52.368;9.712;2023-05-06T05:09:58;100960.69;;;10.96;100.00
55068;BME280;40965;52.368;9.712;2023-05-06T05:12:25;100958.91;;;11.03;100.00
55068;BME280;40965;52.368;9.712;2023-05-06T05:14:51;100954.53;;;11.05;100.00
55068;BME280;40965;52.368;9.712;2023-05-06T05:17:18;100949.34;;;10.97;100.00
55068;BME280;40965;52.368;9.712;2023-05-06T05:19:46;100944.19;;;10.82;100.00
55068;BME280;40965;52.368;9.712;2023-05-06T05:22:13;100947.72;;;10.71;100.00
55068;BME280;40965;52.368;9.712;2023-05-06T05:24:40;100953.88;;;10.61;100.00
55068;BME280;40965;52.368;9.712;2023-05-06T05:27:06;100960.00;;;10.58;100.00
55068;BME280;40965;52.368;9.712;2023-05-06T05:29:33;100972.25;;;10.56;100.00
55068;BME280;40965;52.368;9.712;2023-05-06T05:31:59;100971.38;;;10.56;100.00
55068;BME280;40965;52.368;9.712;2023-05-06T05:34:26;100975.72;;;10.60;100.00
55068;BME280;40965;52.368;9.712;2023-05-06T05:36:53;100978.31;;;10.58;100.00
55068;BME280;40965;52.368;9.712;2023-05-06T05:39:19;100978.31;;;10.63;100.00
55068;BME280;40965;52.368;9.712;2023-05-06T05:41:46;100988.75;;;10.72;100.00
55068;BME280;40965;52.368;9.712;2023-05-06T05:44:12;100986.16;;;10.75;100.00
55068;BME280;40965;52.368;9.712;2023-05-06T05:46:39;100993.94;;;10.85;100.00
55068;BME280;40965;52.368;9.712;2023-05-06T05:49:06;100999.06;;;11.08;100.00
55068;BME280;40965;52.368;9.712;2023-05-06T05:51:33;100998.94;;;11.28;100.00
55068;BME280;40965;52.368;9.712;2023-05-06T05:53:59;100993.56;;;11.47;100.00
55068;BME280;40965;52.368;9.712;2023-05-06T05:56:25;100996.06;;;11.64;100.00
55068;BME280;40965;52.368;9.712;2023-05-06T05:58:52;100993.34;;;11.78;100.00
55068;BME280;40965;52.368;9.712;2023-05-06T06:01:19;100994.13;;;11.86;100.00
55068;BME280;40965;52.368;9.712;2023-05-06T06:03:46;100992.31;;;11.92;100.00
55068;BME280;40965;52.368;9.712;2023-05-06T06:06:12;100982.72;;;11.96;100.00
55068;BME280;40965;52.368;9.712;2023-05-06T06:08:39;100987.09;;;11.97;100.00
55068;BME280;40965;52.368;9.712;2023-05-06T06:11:05;100994.06;;;12.00;100.00
55068;BME280;40965;52.368;9.712;2023-05-06T06:13:32;100998.34;;;12.08;100.00
55068;BME280;40965;52.368;9.712;2023-05-06T06:15:58;101006.16;;;12.13;100.00
55068;BME280;40965;52.368;9.712;2023-05-06T06:18:25;101005.19;;;12.25;100.00
55068;BME280;40965;52.368;9.712;2023-05-06T06:20:51;101001.63;;;12.29;100.00
55068;BME280;40965;52.368;9.712;2023-05-06T06:23:18;101009.31;;;12.46;100.00
55068;BME280;40965;52.368;9.712;2023-05-06T06:25:44;101005.72;;;12.58;100.00
55068;BME280;40965;52.368;9.712;2023-05-06T06:28:11;101021.31;;;12.70;100.00
55068;BME280;40965;52.368;9.712;2023-05-06T06:30:40;101014.25;;;12.76;100.00
55068;BME280;40965;52.368;9.712;2023-05-06T06:33:06;101011.50;;;12.85;100.00
55068;BME280;40965;52.368;9.712;2023-05-06T06:35:33;101012.25;;;12.93;100.00
55068;BME280;40965;52.368;9.712;2023-05-06T06:38:00;101011.34;;;12.99;100.00
55068;BME280;40965;52.368;9.712;2023-05-06T06:40:27;101012.16;;;13.02;100.00
55068;BME280;40965;52.368;9.712;2023-05-06T06:42:53;101020.84;;;13.09;100.00
55068;BME280;40965;52.368;9.712;2023-05-06T06:45:20;101028.63;;;13.15;100.00
55068;BME280;40965;52.368;9.712;2023-05-06T06:47:47;101025.03;;;13.22;100.00
55068;BME280;40965;52.368;9.712;2023-05-06T06:50:15;101031.91;;;13.33;100.00
55068;BME280;40965;52.368;9.712;2023-05-06T06:52:42;101032.59;;;13.47;100.00
55068;BME280;40965;52.368;9.712;2023-05-06T06:55:09;101038.69;;;13.51;100.00
55068;BME280;40965;52.368;9.712;2023-05-06T06:57:39;101034.19;;;13.57;100.00
55068;BME280;40965;52.368;9.712;2023-05-06T07:00:06;101028.91;;;13.59;100.00
55068;BME280;40965;52.368;9.712;2023-05-06T07:02:33;101040.38;;;13.55;100.00
55068;BME280;40965;52.368;9.712;2023-05-06T07:04:59;101031.19;;;13.82;100.00
55068;BME280;40965;52.368;9.712;2023-05-06T07:07:26;101039.22;;;14.25;100.00
55068;BME280;40965;52.368;9.712;2023-05-06T07:09:53;101035.19;;;14.52;100.00
55068;BME280;40965;52.368;9.712;2023-05-06T07:12:20;101037.56;;;14.67;98.40
55068;BME280;40965;52.368;9.712;2023-05-06T07:14:48;101042.97;;;14.60;97.67
55068;BME280;40965;52.368;9.712;2023-05-06T07:17:15;101043.97;;;14.54;97.67
55068;BME280;40965;52.368;9.712;2023-05-06T07:25:47;101041.84;;;14.75;96.05
55068;BME280;40965;52.368;9.712;2023-05-06T07:28:14;101050.53;;;14.78;95.34
55068;BME280;40965;52.368;9.712;2023-05-06T07:30:41;101046.97;;;14.82;95.43
55068;BME280;40965;52.368;9.712;2023-05-06T07:36:44;101056.38;;;14.94;94.35
55068;BME280;40965;52.368;9.712;2023-05-06T07:39:13;101059.38;;;15.18;93.47
55068;BME280;40965;52.368;9.712;2023-05-06T07:42:07;101056.22;;;15.82;89.88
55068;BME280;40965;52.368;9.712;2023-05-06T07:44:38;101059.53;;;16.89;85.66
55068;BME280;40965;52.368;9.712;2023-05-06T07:47:05;101066.44;;;17.55;79.95
55068;BME280;40965;52.368;9.712;2023-05-06T07:49:32;101061.28;;;17.78;80.64
55068;BME280;40965;52.368;9.712;2023-05-06T07:51:59;101060.03;;;17.62;80.57
55068;BME280;40965;52.368;9.712;2023-05-06T07:54:25;101064.59;;;17.28;79.36
55068;BME280;40965;52.368;9.712;2023-05-06T07:56:52;101064.81;;;16.91;81.45
55068;BME280;40965;52.368;9.712;2023-05-06T07:59:19;101072.63;;;16.62;83.23
55068;BME280;40965;52.368;9.712;2023-05-06T08:01:46;101071.22;;;17.13;81.36
55068;BME280;40965;52.368;9.712;2023-05-06T08:04:12;101066.94;;;17.09;81.58
55068;BME280;40965;52.368;9.712;2023-05-06T08:06:39;101068.66;;;17.10;81.47
55068;BME280;40965;52.368;9.712;2023-05-06T08:09:06;101078.19;;;17.16;79.77
55068;BME280;40965;52.368;9.712;2023-05-06T08:11:32;101072.97;;;17.43;78.27
55068;BME280;40965;52.368;9.712;2023-05-06T08:13:59;101074.25;;;18.65;75.27
55068;BME280;40965;52.368;9.712;2023-05-06T08:16:26;101079.78;;;20.20;68.90
55068;BME280;40965;52.368;9.712;2023-05-06T08:18:53;101083.47;;;19.95;68.43
55068;BME280;40965;52.368;9.712;2023-05-06T08:21:19;101082.00;;;19.42;69.40
55068;BME280;40965;52.368;9.712;2023-05-06T08:23:45;101080.63;;;19.32;70.52
55068;BME280;40965;52.368;9.712;2023-05-06T08:26:12;101086.16;;;19.27;70.12
55068;BME280;40965;52.368;9.712;2023-05-06T08:28:38;101095.84;;;19.28;70.27
55068;BME280;40965;52.368;9.712;2023-05-06T08:31:05;101089.44;;;19.10;70.52
55068;BME280;40965;52.368;9.712;2023-05-06T08:33:31;101094.94;;;18.80;70.88
55068;BME280;40965;52.368;9.712;2023-05-06T08:35:58;101100.47;;;18.22;72.76
55068;BME280;40965;52.368;9.712;2023-05-06T08:38:24;101105.03;;;17.62;73.95
55068;BME280;40965;52.368;9.712;2023-05-06T08:40:52;101108.56;;;17.32;76.70
55068;BME280;40965;52.368;9.712;2023-05-06T08:43:20;101097.25;;;17.27;77.97
55068;BME280;40965;52.368;9.712;2023-05-06T08:45:48;101103.31;;;17.31;76.97
55068;BME280;40965;52.368;9.712;2023-05-06T08:48:14;101110.56;;;17.82;74.94
55068;BME280;40965;52.368;9.712;2023-05-06T08:50:41;101099.63;;;19.21;70.33
55068;BME280;40965;52.368;9.712;2023-05-06T08:53:12;101097.25;;;20.26;64.93
55068;BME280;40965;52.368;9.712;2023-05-06T08:55:42;101104.97;;;20.32;63.45
55068;BME280;40965;52.368;9.712;2023-05-06T08:58:10;101112.38;;;20.46;63.30
55068;BME280;40965;52.368;9.712;2023-05-06T09:00:40;101106.94;;;20.06;64.70
55068;BME280;40965;52.368;9.712;2023-05-06T09:03:07;101112.06;;;20.11;64.52
55068;BME280;40965;52.368;9.712;2023-05-06T09:05:34;101109.47;;;20.09;64.74
55068;BME280;40965;52.368;9.712;2023-05-06T09:08:02;101111.22;;;20.31;64.15
55068;BME280;40965;52.368;9.712;2023-05-06T09:10:36;101106.50;;;20.17;63.46
55068;BME280;40965;52.368;9.712;2023-05-06T09:13:11;101110.22;;;19.69;65.41
55068;BME280;40965;52.368;9.712;2023-05-06T09:15:43;101112.63;;;19.29;66.54
55068;BME280;40965;52.368;9.712;2023-05-06T09:20:48;101115.44;;;19.48;65.85
55068;BME280;40965;52.368;9.712;2023-05-06T09:23:16;101119.88;;;19.93;64.51
55068;BME280;40965;52.368;9.712;2023-05-06T09:25:59;101112.69;;;19.95;64.32
55068;BME280;40965;52.368;9.712;2023-05-06T09:28:31;101110.91;;;19.74;64.18
55068;BME280;40965;52.368;9.712;2023-05-06T09:30:58;101108.22;;;19.28;65.65
55068;BME280;40965;52.368;9.712;2023-05-06T09:33:26;101111.59;;;18.84;67.09
55068;BME280;40965;52.368;9.712;2023-05-06T09:35:52;101119.59;;;18.32;69.20
55068;BME280;40965;52.368;9.712;2023-05-06T09:38:19;101120.59;;;18.01;71.19
55068;BME280;40965;52.368;9.712;2023-05-06T09:40:46;101123.91;;;17.79;72.57
55068;BME280;40965;52.368;9.712;2023-05-06T09:43:13;101124.78;;;17.80;72.42
55068;BME280;40965;52.368;9.712;2023-05-06T09:45:40;101120.28;;;17.82;72.34
55068;BME280;40965;52.368;9.712;2023-05-06T09:48:07;101124.66;;;17.83;72.04
55068;BME280;40965;52.368;9.712;2023-05-06T09:50:34;101131.84;;;17.79;71.85
55068;BME280;40965;52.368;9.712;2023-05-06T09:53:03;101128.94;;;17.89;71.83
55068;BME280;40965;52.368;9.712;2023-05-06T09:55:32;101123.41;;;18.75;69.23
55068;BME280;40965;52.368;9.712;2023-05-06T09:57:59;101118.97;;;19.25;66.43
55068;BME280;40965;52.368;9.712;2023-05-06T10:00:29;101124.56;;;19.17;66.70
55068;BME280;40965;52.368;9.712;2023-05-06T10:02:57;101122.97;;;19.13;66.75
55068;BME280;40965;52.368;9.712;2023-05-06T10:05:24;101123.72;;;19.40;66.00
55068;BME280;40965;52.368;9.712;2023-05-06T10:07:53;101121.97;;;19.85;64.37
55068;BME280;40965;52.368;9.712;2023-05-06T10:10:20;101128.47;;;20.00;63.84
55068;BME280;40965;52.368;9.712;2023-05-06T10:12:48;101122.94;;;20.05;63.92
55068;BME280;40965;52.368;9.712;2023-05-06T10:15:16;101128.16;;;20.08;62.97
55068;BME280;40965;52.368;9.712;2023-05-06T10:17:43;101121.59;;;20.37;62.68
55068;BME280;40965;52.368;9.712;2023-05-06T10:20:13;101121.13;;;20.48;63.21
55068;BME280;40965;52.368;9.712;2023-05-06T10:23:00;101120.63;;;20.60;60.32
55068;BME280;40965;52.368;9.712;2023-05-06T10:25:50;101121.41;;;20.42;61.67
55068;BME280;40965;52.368;9.712;2023-05-06T10:28:21;101116.22;;;20.59;62.29
55068;BME280;40965;52.368;9.712;2023-05-06T10:30:49;101121.22;;;20.67;61.71
55068;BME280;40965;52.368;9.712;2023-05-06T10:33:16;101115.97;;;20.86;61.06
55068;BME280;40965;52.368;9.712;2023-05-06T10:35:47;101113.06;;;21.11;59.44
55068;BME280;40965;52.368;9.712;2023-05-06T10:38:24;101107.19;;;21.24;57.86
55068;BME280;40965;52.368;9.712;2023-05-06T10:40:54;101113.38;;;21.43;57.35
55068;BME280;40965;52.368;9.712;2023-05-06T10:43:23;101109.94;;;22.14;55.17
55068;BME280;40965;52.368;9.712;2023-05-06T10:46:16;101110.25;;;22.78;51.15
55068;BME280;40965;52.368;9.712;2023-05-06T10:51:39;101105.56;;;22.31;51.14
55068;BME280;40965;52.368;9.712;2023-05-06T10:54:09;101102.22;;;22.62;50.21
55068;BME280;40965;52.368;9.712;2023-05-06T10:57:06;101104.06;;;23.11;48.45
55068;BME280;40965;52.368;9.712;2023-05-06T10:59:35;101107.53;;;23.93;46.55
55068;BME280;40965;52.368;9.712;2023-05-06T11:04:32;101114.25;;;24.31;45.42
55068;BME280;40965;52.368;9.712;2023-05-06T11:07:07;101104.59;;;24.59;43.52
55068;BME280;40965;52.368;9.712;2023-05-06T11:10:02;101104.53;;;23.84;44.95
55068;BME280;40965;52.368;9.712;2023-05-06T11:12:47;101112.72;;;23.17;46.69
55068;BME280;40965;52.368;9.712;2023-05-06T11:15:20;101117.03;;;23.35;47.02
55068;BME280;40965;52.368;9.712;2023-05-06T11:17:49;101105.13;;;24.66;45.33
55068;BME280;40965;52.368;9.712;2023-05-06T11:20:18;101100.91;;;26.82;38.85
55068;BME280;40965;52.368;9.712;2023-05-06T11:22:48;101108.81;;;26.57;40.06
55068;BME280;40965;52.368;9.712;2023-05-06T11:25:38;101104.53;;;26.68;37.95
55068;BME280;40965;52.368;9.712;2023-05-06T11:28:07;101104.38;;;28.19;37.51
55068;BME280;40965;52.368;9.712;2023-05-06T11:30:42;101102.53;;;28.78;34.76
55068;BME280;40965;52.368;9.712;2023-05-06T11:33:18;101103.59;;;30.52;32.30
55068;BME280;40965;52.368;9.712;2023-05-06T11:35:49;101103.59;;;31.55;30.79
55068;BME280;40965;52.368;9.712;2023-05-06T11:38:15;101105.22;;;30.65;32.05
55068;BME280;40965;52.368;9.712;2023-05-06T11:40:42;101107.22;;;30.94;32.03
55068;BME280;40965;52.368;9.712;2023-05-06T11:43:14;101108.66;;;31.48;30.60
55068;BME280;40965;52.368;9.712;2023-05-06T11:45:46;101110.34;;;31.20;30.46
55068;BME280;40965;52.368;9.712;2023-05-06T11:48:15;101116.97;;;29.57;33.30
55068;BME280;40965;52.368;9.712;2023-05-06T11:50:46;101118.25;;;27.28;35.88
55068;BME280;40965;52.368;9.712;2023-05-06T11:53:16;101111.22;;;26.09;37.65
55068;BME280;40965;52.368;9.712;2023-05-06T11:55:46;101116.47;;;25.83;38.14
55068;BME280;40965;52.368;9.712;2023-05-06T11:58:24;101106.44;;;26.27;37.43
55068;BME280;40965;52.368;9.712;2023-05-06T12:00:56;101110.75;;;26.55;36.84
55068;BME280;40965;52.368;9.712;2023-05-06T12:03:24;101107.50;;;25.97;37.86
55068;BME280;40965;52.368;9.712;2023-05-06T12:05:53;101111.03;;;25.43;38.91
55068;BME280;40965;52.368;9.712;2023-05-06T12:08:23;101105.53;;;25.59;39.04
55068;BME280;40965;52.368;9.712;2023-05-06T12:10:51;101111.03;;;25.98;38.71
55068;BME280;40965;52.368;9.712;2023-05-06T12:13:19;101110.31;;;25.68;38.93
55068;BME280;40965;52.368;9.712;2023-05-06T12:15:49;101115.63;;;24.69;40.76
55068;BME280;40965;52.368;9.712;2023-05-06T12:18:16;101110.28;;;26.10;38.81
55068;BME280;40965;52.368;9.712;2023-05-06T12:20:43;101106.84;;;27.37;36.63
55068;BME280;40965;52.368;9.712;2023-05-06T12:23:14;101111.94;;;27.16;36.66
55068;BME280;40965;52.368;9.712;2023-05-06T12:25:43;101110.56;;;26.05;37.71
55068;BME280;40965;52.368;9.712;2023-05-06T12:28:18;101123.78;;;24.21;40.25
55068;BME280;40965;52.368;9.712;2023-05-06T12:30:46;101115.66;;;23.44;41.89
55068;BME280;40965;52.368;9.712;2023-05-06T12:33:20;101117.63;;;23.24;42.18
55068;BME280;40965;52.368;9.712;2023-05-06T12:35:47;101119.00;;;22.98;43.26
55068;BME280;40965;52.368;9.712;2023-05-06T12:38:16;101117.22;;;22.99;43.26
55068;BME280;40965;52.368;9.712;2023-05-06T12:40:52;101118.78;;;23.03;43.81
55068;BME280;40965;52.368;9.712;2023-05-06T12:43:27;101121.28;;;22.72;44.46
55068;BME280;40965;52.368;9.712;2023-05-06T12:46:07;101129.41;;;22.34;45.54
55068;BME280;40965;52.368;9.712;2023-05-06T12:48:36;101124.03;;;24.32;41.67
55068;BME280;40965;52.368;9.712;2023-05-06T12:51:23;101104.19;;;27.24;35.90
55068;BME280;40965;52.368;9.712;2023-05-06T12:53:58;101113.81;;;27.77;35.19
55068;BME280;40965;52.368;9.712;2023-05-06T12:56:24;101125.75;;;26.19;37.60
55068;BME280;40965;52.368;9.712;2023-05-06T12:59:00;101133.81;;;24.48;40.49
55068;BME280;40965;52.368;9.712;2023-05-06T13:01:32;101133.44;;;23.11;43.78
55068;BME280;40965;52.368;9.712;2023-05-06T13:04:00;101122.72;;;22.08;45.61
55068;BME280;40965;52.368;9.712;2023-05-06T13:06:27;101118.34;;;21.32;47.32
55068;BME280;40965;52.368;9.712;2023-05-06T13:08:56;101118.88;;;20.59;48.55
55068;BME280;40965;52.368;9.712;2023-05-06T13:11:23;101113.44;;;21.23;46.93
55068;BME280;40965;52.368;9.712;2023-05-06T13:13:50;101108.09;;;21.80;45.81
55068;BME280;40965;52.368;9.712;2023-05-06T13:16:16;101118.53;;;21.85;45.21